sensor_id;sensor_type;location;lat;lon;timestamp;temperature;humidity
22418;DHT22;11376;50.932;4.442;2022-08-25T04:53:33;19.40;99.90
22418;DHT22;11376;50.932;4.442;2022-08-25T04:55:59;18.90;99.90
22418;DHT22;11376;50.932;4.442;2022-08-25T04:58:24;19.10;99.90
22418;DHT22;11376;50.932;4.442;2022-08-25T05:00:50;19.40;99.90
22418;DHT22;11376;50.932;4.442;2022-08-25T05:03:15;19.60;99.90
22418;DHT22;11376;50.932;4.442;2022-08-25T05:05:41;19.80;99.90
22418;DHT22;11376;50.932;4.442;2022-08-25T05:08:07;20.10;99.90
22418;DHT22;11376;50.932;4.442;2022-08-25T05:10:33;20.30;99.90
22418;DHT22;11376;50.932;4.442;2022-08-25T05:12:59;20.50;99.90
22418;DHT22;11376;50.932;4.442;2022-08-25T05:15:25;20.70;99.90
22418;DHT22;11376;50.932;4.442;2022-08-25T05:18:09;20.80;99.90
22418;DHT22;11376;50.932;4.442;2022-08-25T05:20:35;21.00;99.90
22418;DHT22;11376;50.932;4.442;2022-08-25T05:23:02;21.20;99.90
22418;DHT22;11376;50.932;4.442;2022-08-25T05:25:28;21.30;99.90
22418;DHT22;11376;50.932;4.442;2022-08-25T05:27:53;21.50;99.90
22418;DHT22;11376;50.932;4.442;2022-08-25T05:30:19;21.60;99.90
22418;DHT22;11376;50.932;4.442;2022-08-25T05:32:45;21.70;99.90
22418;DHT22;11376;50.932;4.442;2022-08-25T05:35:10;21.90;99.90
22418;DHT22;11376;50.932;4.442;2022-08-25T05:37:36;22.00;99.90
22418;DHT22;11376;50.932;4.442;2022-08-25T05:40:05;22.10;99.90
22418;DHT22;11376;50.932;4.442;2022-08-25T05:42:31;22.20;99.90
22418;DHT22;11376;50.932;4.442;2022-08-25T05:44:57;22.30;99.90
22418;DHT22;11376;50.932;4.442;2022-08-25T05:47:22;22.50;99.90
22418;DHT22;11376;50.932;4.442;2022-08-25T05:49:48;22.60;99.90
22418;DHT22;11376;50.932;4.442;2022-08-25T05:52:14;22.70;99.90
22418;DHT22;11376;50.932;4.442;2022-08-25T05:54:39;22.90;99.90
22418;DHT22;11376;50.932;4.442;2022-08-25T05:57:06;23.00;99.90
22418;DHT22;11376;50.932;4.442;2022-08-25T05:59:32;23.10;99.90
22418;DHT22;11376;50.932;4.442;2022-08-25T06:01:58;23.20;99.90
22418;DHT22;11376;50.932;4.442;2022-08-25T06:04:42;23.40;99.90
22418;DHT22;11376;50.932;4.442;2022-08-25T06:07:08;23.50;99.90
22418;DHT22;11376;50.932;4.442;2022-08-25T06:09:37;23.70;99.90
22418;DHT22;11376;50.932;4.442;2022-08-25T06:12:03;23.80;99.90
22418;DHT22;11376;50.932;4.442;2022-08-25T06:14:29;23.90;99.90
22418;DHT22;11376;50.932;4.442;2022-08-25T06:16:54;24.00;99.90
22418;DHT22;11376;50.932;4.442;2022-08-25T06:19:21;24.10;99.90
22418;DHT22;11376;50.932;4.442;2022-08-25T06:21:48;24.30;99.90
22418;DHT22;11376;50.932;4.442;2022-08-25T06:24:13;24.40;99.90
22418;DHT22;11376;50.932;4.442;2022-08-25T06:26:39;24.50;99.90
22418;DHT22;11376;50.932;4.442;2022-08-25T06:29:05;24.60;99.90
22418;DHT22;11376;50.932;4.442;2022-08-25T06:31:31;24.70;99.90
22418;DHT22;11376;50.932;4.442;2022-08-25T06:33:56;24.80;99.90
22418;DHT22;11376;50.932;4.442;2022-08-25T06:36:23;24.90;99.90
22418;DHT22;11376;50.932;4.442;2022-08-25T06:38:48;25.00;99.90
22418;DHT22;11376;50.932;4.442;2022-08-25T06:41:14;25.10;99.90
22418;DHT22;11376;50.932;4.442;2022-08-25T06:43:41;25.20;99.90
22418;DHT22;11376;50.932;4.442;2022-08-25T06:46:15;25.40;99.90
22418;DHT22;11376;50.932;4.442;2022-08-25T06:48:41;25.50;99.90
22418;DHT22;11376;50.932;4.442;2022-08-25T06:51:09;25.60;99.90
22418;DHT22;11376;50.932;4.442;2022-08-25T06:53:34;25.70;99.90
22418;DHT22;11376;50.932;4.442;2022-08-25T06:56:01;25.80;99.90
22418;DHT22;11376;50.932;4.442;2022-08-25T06:58:27;26.00;99.90
22418;DHT22;11376;50.932;4.442;2022-08-25T07:00:52;26.20;99.90
22418;DHT22;11376;50.932;4.442;2022-08-25T07:03:18;26.30;99.90
22418;DHT22;11376;50.932;4.442;2022-08-25T07:05:54;26.50;99.90
22418;DHT22;11376;50.932;4.442;2022-08-25T07:08:21;26.60;99.90
22418;DHT22;11376;50.932;4.442;2022-08-25T07:10:47;26.80;99.90
22418;DHT22;11376;50.932;4.442;2022-08-25T07:13:14;26.90;99.90
22418;DHT22;11376;50.932;4.442;2022-08-25T07:15:40;27.10;99.90
22418;DHT22;11376;50.932;4.442;2022-08-25T07:18:06;27.10;99.90
22418;DHT22;11376;50.932;4.442;2022-08-25T07:20:35;27.20;99.90
22418;DHT22;11376;50.932;4.442;2022-08-25T07:23:01;27.40;99.90
22418;DHT22;11376;50.932;4.442;2022-08-25T07:25:27;27.40;99.90
22418;DHT22;11376;50.932;4.442;2022-08-25T07:27:53;27.50;99.90
22418;DHT22;11376;50.932;4.442;2022-08-25T07:30:20;27.50;99.90
22418;DHT22;11376;50.932;4.442;2022-08-25T07:32:45;27.60;99.90
22418;DHT22;11376;50.932;4.442;2022-08-25T07:35:11;27.70;99.90
22418;DHT22;11376;50.932;4.442;2022-08-25T07:37:42;27.70;99.90
22418;DHT22;11376;50.932;4.442;2022-08-25T07:40:10;27.90;99.90
22418;DHT22;11376;50.932;4.442;2022-08-25T07:42:36;27.90;99.90
22418;DHT22;11376;50.932;4.442;2022-08-25T07:45:03;28.10;99.90
22418;DHT22;11376;50.932;4.442;2022-08-25T07:47:29;28.10;99.90
22418;DHT22;11376;50.932;4.442;2022-08-25T07:49:56;28.20;99.90
22418;DHT22;11376;50.932;4.442;2022-08-25T07:52:22;28.30;99.90
22418;DHT22;11376;50.932;4.442;2022-08-25T07:54:47;28.50;99.90
22418;DHT22;11376;50.932;4.442;2022-08-25T07:57:13;28.60;99.90
22418;DHT22;11376;50.932;4.442;2022-08-25T07:59:42;28.70;99.90
22418;DHT22;11376;50.932;4.442;2022-08-25T08:02:09;28.80;99.90
22418;DHT22;11376;50.932;4.442;2022-08-25T08:04:36;28.80;99.90
22418;DHT22;11376;50.932;4.442;2022-08-25T08:07:02;29.00;99.90
22418;DHT22;11376;50.932;4.442;2022-08-25T08:09:27;29.10;99.90
22418;DHT22;11376;50.932;4.442;2022-08-25T08:11:55;29.20;99.10
22418;DHT22;11376;50.932;4.442;2022-08-25T08:14:22;29.40;98.20
22418;DHT22;11376;50.932;4.442;2022-08-25T08:16:47;29.40;95.70
22418;DHT22;11376;50.932;4.442;2022-08-25T08:19:14;29.50;95.10
22418;DHT22;11376;50.932;4.442;2022-08-25T08:21:40;29.60;94.70
22418;DHT22;11376;50.932;4.442;2022-08-25T08:24:07;29.80;94.40
22418;DHT22;11376;50.932;4.442;2022-08-25T08:26:32;29.90;94.60
22418;DHT22;11376;50.932;4.442;2022-08-25T08:28:58;29.90;93.80
22418;DHT22;11376;50.932;4.442;2022-08-25T08:31:25;30.00;93.50
22418;DHT22;11376;50.932;4.442;2022-08-25T08:33:53;30.10;93.20
22418;DHT22;11376;50.932;4.442;2022-08-25T08:36:20;30.20;93.10
22418;DHT22;11376;50.932;4.442;2022-08-25T08:38:46;30.40;92.90
22418;DHT22;11376;50.932;4.442;2022-08-25T08:49:41;30.70;89.90
22418;DHT22;11376;50.932;4.442;2022-08-25T08:52:14;30.70;88.40
22418;DHT22;11376;50.932;4.442;2022-08-25T08:54:41;30.90;89.30
22418;DHT22;11376;50.932;4.442;2022-08-25T08:57:15;31.00;89.90
22418;DHT22;11376;50.932;4.442;2022-08-25T08:59:50;31.00;89.30
22418;DHT22;11376;50.932;4.442;2022-08-25T09:02:50;31.10;89.10
22418;DHT22;11376;50.932;4.442;2022-08-25T09:05:18;31.20;88.20
22418;DHT22;11376;50.932;4.442;2022-08-25T09:07:53;31.20;86.80
22418;DHT22;11376;50.932;4.442;2022-08-25T09:10:19;31.30;86.70
22418;DHT22;11376;50.932;4.442;2022-08-25T09:13:03;31.40;86.40
22418;DHT22;11376;50.932;4.442;2022-08-25T09:15:44;31.50;84.80
22418;DHT22;11376;50.932;4.442;2022-08-25T09:21:24;31.40;81.40
22418;DHT22;11376;50.932;4.442;2022-08-25T09:24:31;31.60;81.40
22418;DHT22;11376;50.932;4.442;2022-08-25T09:27:03;31.70;79.30
22418;DHT22;11376;50.932;4.442;2022-08-25T09:29:57;32.00;78.40
22418;DHT22;11376;50.932;4.442;2022-08-25T09:32:29;32.00;75.90
22418;DHT22;11376;50.932;4.442;2022-08-25T09:34:56;32.00;75.90
22418;DHT22;11376;50.932;4.442;2022-08-25T09:37:23;32.20;75.50
22418;DHT22;11376;50.932;4.442;2022-08-25T09:39:49;32.20;73.90
22418;DHT22;11376;50.932;4.442;2022-08-25T09:42:17;32.30;70.80
22418;DHT22;11376;50.932;4.442;2022-08-25T09:44:45;32.20;69.40
22418;DHT22;11376;50.932;4.442;2022-08-25T09:49:48;32.20;68.10
22418;DHT22;11376;50.932;4.442;2022-08-25T09:54:54;32.40;65.70
22418;DHT22;11376;50.932;4.442;2022-08-25T10:00:29;32.90;64.80
22418;DHT22;11376;50.932;4.442;2022-08-25T10:03:14;32.90;61.40
22418;DHT22;11376;50.932;4.442;2022-08-25T10:11:11;32.90;61.70
22418;DHT22;11376;50.932;4.442;2022-08-25T10:13:44;33.10;60.30
22418;DHT22;11376;50.932;4.442;2022-08-25T10:16:20;33.20;60.20
22418;DHT22;11376;50.932;4.442;2022-08-25T10:21:25;33.50;59.70
22418;DHT22;11376;50.932;4.442;2022-08-25T10:23:51;33.60;58.50
22418;DHT22;11376;50.932;4.442;2022-08-25T10:26:54;33.60;58.30
22418;DHT22;11376;50.932;4.442;2022-08-25T10:34:57;34.10;56.90
22418;DHT22;11376;50.932;4.442;2022-08-25T10:37:51;34.50;56.90
22418;DHT22;11376;50.932;4.442;2022-08-25T10:43:10;34.90;55.60
22418;DHT22;11376;50.932;4.442;2022-08-25T10:45:46;35.00;55.00
22418;DHT22;11376;50.932;4.442;2022-08-25T10:48:16;35.70;54.00
22418;DHT22;11376;50.932;4.442;2022-08-25T10:50:49;36.70;52.90
22418;DHT22;11376;50.932;4.442;2022-08-25T10:58:58;43.10;43.70
22418;DHT22;11376;50.932;4.442;2022-08-25T11:07:06;48.40;31.60
22418;DHT22;11376;50.932;4.442;2022-08-25T11:09:37;49.30;29.70
22418;DHT22;11376;50.932;4.442;2022-08-25T11:12:09;50.80;28.10
22418;DHT22;11376;50.932;4.442;2022-08-25T11:14:39;52.20;26.40
22418;DHT22;11376;50.932;4.442;2022-08-25T11:17:19;52.60;25.50
22418;DHT22;11376;50.932;4.442;2022-08-25T11:19:49;53.20;24.50
22418;DHT22;11376;50.932;4.442;2022-08-25T11:22:27;54.20;24.00
22418;DHT22;11376;50.932;4.442;2022-08-25T11:30:36;57.40;21.30
22418;DHT22;11376;50.932;4.442;2022-08-25T11:33:03;57.20;20.80
22418;DHT22;11376;50.932;4.442;2022-08-25T11:35:43;55.50;21.00
22418;DHT22;11376;50.932;4.442;2022-08-25T11:38:48;54.30;21.60
22418;DHT22;11376;50.932;4.442;2022-08-25T11:50:06;57.20;20.10
22418;DHT22;11376;50.932;4.442;2022-08-25T11:55:24;58.90;19.10
22418;DHT22;11376;50.932;4.442;2022-08-25T11:58:11;59.20;19.50
22418;DHT22;11376;50.932;4.442;2022-08-25T12:00:42;58.50;18.70
22418;DHT22;11376;50.932;4.442;2022-08-25T12:03:45;58.20;18.90
22418;DHT22;11376;50.932;4.442;2022-08-25T12:19:29;54.50;20.20
22418;DHT22;11376;50.932;4.442;2022-08-25T12:43:35;52.00;20.10
22418;DHT22;11376;50.932;4.442;2022-08-25T12:54:10;45.40;24.10
22418;DHT22;11376;50.932;4.442;2022-08-25T12:56:41;44.70;24.70
22418;DHT22;11376;50.932;4.442;2022-08-25T12:59:15;45.20;24.80
22418;DHT22;11376;50.932;4.442;2022-08-25T13:07:21;51.80;21.40
22418;DHT22;11376;50.932;4.442;2022-08-25T13:10:15;53.00;20.80
22418;DHT22;11376;50.932;4.442;2022-08-25T13:13:05;54.80;19.90
22418;DHT22;11376;50.932;4.442;2022-08-25T13:18:14;57.60;18.70
22418;DHT22;11376;50.932;4.442;2022-08-25T13:20:40;58.40;18.40
22418;DHT22;11376;50.932;4.442;2022-08-25T13:23:06;58.40;18.20
22418;DHT22;11376;50.932;4.442;2022-08-25T13:25:32;58.10;18.10
22418;DHT22;11376;50.932;4.442;2022-08-25T13:28:02;58.30;18.10
22418;DHT22;11376;50.932;4.442;2022-08-25T13:30:32;56.30;18.60
22418;DHT22;11376;50.932;4.442;2022-08-25T13:32:58;55.60;18.70
22418;DHT22;11376;50.932;4.442;2022-08-25T13:35:26;55.90;18.70
22418;DHT22;11376;50.932;4.442;2022-08-25T13:37:53;56.20;18.60
22418;DHT22;11376;50.932;4.442;2022-08-25T13:42:51;56.60;18.30
22418;DHT22;11376;50.932;4.442;2022-08-25T13:45:20;54.70;18.80
22418;DHT22;11376;50.932;4.442;2022-08-25T13:47:47;52.80;19.80
22418;DHT22;11376;50.932;4.442;2022-08-25T13:50:34;50.00;20.90
22418;DHT22;11376;50.932;4.442;2022-08-25T13:53:13;47.30;22.40
22418;DHT22;11376;50.932;4.442;2022-08-25T13:55:57;45.90;23.30
22418;DHT22;11376;50.932;4.442;2022-08-25T13:58:32;44.60;24.30
22418;DHT22;11376;50.932;4.442;2022-08-25T14:06:29;41.00;34.40
22418;DHT22;11376;50.932;4.442;2022-08-25T14:11:33;40.10;36.00
22418;DHT22;11376;50.932;4.442;2022-08-25T14:14:07;39.60;37.40
22418;DHT22;11376;50.932;4.442;2022-08-25T14:16:46;39.20;38.00
22418;DHT22;11376;50.932;4.442;2022-08-25T14:19:15;39.00;38.20
22418;DHT22;11376;50.932;4.442;2022-08-25T14:21:41;39.80;36.70
22418;DHT22;11376;50.932;4.442;2022-08-25T14:24:07;41.30;35.00
22418;DHT22;11376;50.932;4.442;2022-08-25T14:26:33;42.40;33.50
22418;DHT22;11376;50.932;4.442;2022-08-25T14:28:58;42.30;33.50
22418;DHT22;11376;50.932;4.442;2022-08-25T14:31:29;41.60;34.00
22418;DHT22;11376;50.932;4.442;2022-08-25T14:34:05;41.00;34.70
22418;DHT22;11376;50.932;4.442;2022-08-25T14:36:33;40.60;35.40
22418;DHT22;11376;50.932;4.442;2022-08-25T14:39:00;40.20;36.30
22418;DHT22;11376;50.932;4.442;2022-08-25T14:41:30;39.80;36.50
22418;DHT22;11376;50.932;4.442;2022-08-25T14:43:58;39.40;36.80
22418;DHT22;11376;50.932;4.442;2022-08-25T14:46:27;39.10;37.20
22418;DHT22;11376;50.932;4.442;2022-08-25T14:48:58;38.90;37.40
22418;DHT22;11376;50.932;4.442;2022-08-25T14:51:25;38.70;37.60
22418;DHT22;11376;50.932;4.442;2022-08-25T14:53:53;38.70;37.60
22418;DHT22;11376;50.932;4.442;2022-08-25T14:56:20;38.70;37.60
22418;DHT22;11376;50.932;4.442;2022-08-25T14:58:46;38.70;37.40
22418;DHT22;11376;50.932;4.442;2022-08-25T15:01:13;38.70;37.20
22418;DHT22;11376;50.932;4.442;2022-08-25T15:03:41;38.70;36.90
22418;DHT22;11376;50.932;4.442;2022-08-25T15:06:10;38.60;37.50
22418;DHT22;11376;50.932;4.442;2022-08-25T15:08:37;38.40;37.80
22418;DHT22;11376;50.932;4.442;2022-08-25T15:11:21;38.40;38.20
22418;DHT22;11376;50.932;4.442;2022-08-25T15:13:47;38.30;38.40
22418;DHT22;11376;50.932;4.442;2022-08-25T15:16:17;38.20;38.50
22418;DHT22;11376;50.932;4.442;2022-08-25T15:18:45;38.20;38.70
22418;DHT22;11376;50.932;4.442;2022-08-25T15:21:10;38.30;38.80
22418;DHT22;11376;50.932;4.442;2022-08-25T15:23:37;38.40;38.40
22418;DHT22;11376;50.932;4.442;2022-08-25T15:26:02;38.40;38.20
22418;DHT22;11376;50.932;4.442;2022-08-25T15:28:28;38.20;39.20
22418;DHT22;11376;50.932;4.442;2022-08-25T15:30:54;38.10;40.30
22418;DHT22;11376;50.932;4.442;2022-08-25T15:33:19;38.00;42.00
22418;DHT22;11376;50.932;4.442;2022-08-25T15:35:47;37.70;43.50
22418;DHT22;11376;50.932;4.442;2022-08-25T15:38:12;37.30;44.60
22418;DHT22;11376;50.932;4.442;2022-08-25T15:40:38;36.90;45.30
22418;DHT22;11376;50.932;4.442;2022-08-25T15:43:04;36.50;46.20
22418;DHT22;11376;50.932;4.442;2022-08-25T15:45:31;36.50;47.50
22418;DHT22;11376;50.932;4.442;2022-08-25T15:47:56;36.40;48.50
22418;DHT22;11376;50.932;4.442;2022-08-25T15:50:22;36.30;49.10
22418;DHT22;11376;50.932;4.442;2022-08-25T15:52:48;36.20;50.00
22418;DHT22;11376;50.932;4.442;2022-08-25T15:55:14;35.90;50.70
22418;DHT22;11376;50.932;4.442;2022-08-25T15:57:41;35.40;52.00
22418;DHT22;11376;50.932;4.442;2022-08-25T16:00:08;35.10;53.00
22418;DHT22;11376;50.932;4.442;2022-08-25T16:02:37;34.90;53.50
22418;DHT22;11376;50.932;4.442;2022-08-25T16:05:05;34.90;53.50
22418;DHT22;11376;50.932;4.442;2022-08-25T16:07:30;34.90;53.50
22418;DHT22;11376;50.932;4.442;2022-08-25T16:09:57;34.90;52.70
22418;DHT22;11376;50.932;4.442;2022-08-25T16:12:24;35.00;52.50
22418;DHT22;11376;50.932;4.442;2022-08-25T16:14:50;35.20;52.10
22418;DHT22;11376;50.932;4.442;2022-08-25T16:17:17;35.30;52.60
22418;DHT22;11376;50.932;4.442;2022-08-25T16:19:44;35.40;52.60
22418;DHT22;11376;50.932;4.442;2022-08-25T16:22:09;35.70;52.90
22418;DHT22;11376;50.932;4.442;2022-08-25T16:24:38;35.90;53.00
22418;DHT22;11376;50.932;4.442;2022-08-25T16:27:05;36.10;53.30
22418;DHT22;11376;50.932;4.442;2022-08-25T16:29:33;36.10;53.60
22418;DHT22;11376;50.932;4.442;2022-08-25T16:31:59;36.10;54.10
22418;DHT22;11376;50.932;4.442;2022-08-25T16:34:25;35.80;55.00
22418;DHT22;11376;50.932;4.442;2022-08-25T16:36:51;35.70;55.60
22418;DHT22;11376;50.932;4.442;2022-08-25T16:39:18;35.70;56.20
22418;DHT22;11376;50.932;4.442;2022-08-25T16:41:44;35.60;56.40
22418;DHT22;11376;50.932;4.442;2022-08-25T16:44:10;35.50;57.30
22418;DHT22;11376;50.932;4.442;2022-08-25T16:46:36;35.50;57.90
22418;DHT22;11376;50.932;4.442;2022-08-25T16:49:03;35.50;58.30
22418;DHT22;11376;50.932;4.442;2022-08-25T16:51:30;35.10;58.80
22418;DHT22;11376;50.932;4.442;2022-08-25T16:53:56;34.70;60.40
22418;DHT22;11376;50.932;4.442;2022-08-25T16:56:41;34.30;61.80
22418;DHT22;11376;50.932;4.442;2022-08-25T16:59:08;33.90;64.00
22418;DHT22;11376;50.932;4.442;2022-08-25T17:01:35;33.80;65.20
22418;DHT22;11376;50.932;4.442;2022-08-25T17:04:01;33.50;65.90
22418;DHT22;11376;50.932;4.442;2022-08-25T17:06:29;33.30;67.10
22418;DHT22;11376;50.932;4.442;2022-08-25T17:08:55;33.00;68.50
22418;DHT22;11376;50.932;4.442;2022-08-25T17:11:24;32.70;70.20
22418;DHT22;11376;50.932;4.442;2022-08-25T17:13:53;32.50;72.50
22418;DHT22;11376;50.932;4.442;2022-08-25T17:16:21;32.20;75.30
22418;DHT22;11376;50.932;4.442;2022-08-25T17:18:47;31.90;79.30
22418;DHT22;11376;50.932;4.442;2022-08-25T17:21:15;31.60;82.40
22418;DHT22;11376;50.932;4.442;2022-08-25T17:23:42;31.40;85.90
22418;DHT22;11376;50.932;4.442;2022-08-25T17:26:11;31.10;90.20
22418;DHT22;11376;50.932;4.442;2022-08-25T17:28:37;30.80;92.20
22418;DHT22;11376;50.932;4.442;2022-08-25T17:31:03;30.60;94.90
22418;DHT22;11376;50.932;4.442;2022-08-25T17:33:28;30.30;97.50
22418;DHT22;11376;50.932;4.442;2022-08-25T17:35:55;30.10;99.90
22418;DHT22;11376;50.932;4.442;2022-08-25T17:38:23;30.00;99.90
22418;DHT22;11376;50.932;4.442;2022-08-25T17:40:55;29.80;99.90
22418;DHT22;11376;50.932;4.442;2022-08-25T17:43:23;29.60;99.90
22418;DHT22;11376;50.932;4.442;2022-08-25T17:45:50;29.40;99.90
22418;DHT22;11376;50.932;4.442;2022-08-25T17:48:17;29.10;99.90
22418;DHT22;11376;50.932;4.442;2022-08-25T17:50:43;28.90;99.90
22418;DHT22;11376;50.932;4.442;2022-08-25T17:53:10;28.80;99.90
22418;DHT22;11376;50.932;4.442;2022-08-25T17:55:37;28.60;99.90
22418;DHT22;11376;50.932;4.442;2022-08-25T17:58:04;28.50;99.90
22418;DHT22;11376;50.932;4.442;2022-08-25T18:00:30;28.30;99.90
22418;DHT22;11376;50.932;4.442;2022-08-25T18:02:57;28.10;99.90
22418;DHT22;11376;50.932;4.442;2022-08-25T18:05:24;28.00;99.90
22418;DHT22;11376;50.932;4.442;2022-08-25T18:07:49;27.90;99.90
22418;DHT22;11376;50.932;4.442;2022-08-25T18:10:16;27.80;99.90
22418;DHT22;11376;50.932;4.442;2022-08-25T18:12:42;27.90;99.90
22418;DHT22;11376;50.932;4.442;2022-08-25T18:15:09;27.70;99.90
22418;DHT22;11376;50.932;4.442;2022-08-25T18:17:36;27.60;99.90
22418;DHT22;11376;50.932;4.442;2022-08-25T18:20:04;27.50;99.90
22418;DHT22;11376;50.932;4.442;2022-08-25T18:22:31;27.50;99.90
22418;DHT22;11376;50.932;4.442;2022-08-25T18:24:58;27.40;99.90
22418;DHT22;11376;50.932;4.442;2022-08-25T18:27:25;27.20;99.90
22418;DHT22;11376;50.932;4.442;2022-08-25T18:29:51;27.10;99.90
22418;DHT22;11376;50.932;4.442;2022-08-25T18:32:16;27.10;99.90
22418;DHT22;11376;50.932;4.442;2022-08-25T18:34:42;27.00;99.90
22418;DHT22;11376;50.932;4.442;2022-08-25T18:37:08;26.80;99.90
22418;DHT22;11376;50.932;4.442;2022-08-25T18:39:52;26.70;99.90
22418;DHT22;11376;50.932;4.442;2022-08-25T18:42:36;26.50;99.90
22418;DHT22;11376;50.932;4.442;2022-08-25T18:45:05;26.40;99.90
22418;DHT22;11376;50.932;4.442;2022-08-25T18:47:32;26.30;99.90
22418;DHT22;11376;50.932;4.442;2022-08-25T18:49:58;26.30;99.90
22418;DHT22;11376;50.932;4.442;2022-08-25T18:52:24;26.10;99.90
22418;DHT22;11376;50.932;4.442;2022-08-25T18:54:50;26.10;99.90
22418;DHT22;11376;50.932;4.442;2022-08-25T18:57:15;26.00;99.90
22418;DHT22;11376;50.932;4.442;2022-08-25T18:59:41;26.00;99.90
22418;DHT22;11376;50.932;4.442;2022-08-25T19:02:07;25.90;99.90
22418;DHT22;11376;50.932;4.442;2022-08-25T19:04:35;25.90;99.90
22418;DHT22;11376;50.932;4.442;2022-08-25T19:07:01;25.80;99.90
22418;DHT22;11376;50.932;4.442;2022-08-25T19:09:27;25.70;99.90
22418;DHT22;11376;50.932;4.442;2022-08-25T19:11:52;25.60;99.90
22418;DHT22;11376;50.932;4.442;2022-08-25T19:14:18;25.50;99.90
22418;DHT22;11376;50.932;4.442;2022-08-25T19:16:44;25.50;99.90
22418;DHT22;11376;50.932;4.442;2022-08-25T19:19:11;25.40;99.90
22418;DHT22;11376;50.932;4.442;2022-08-25T19:21:38;25.30;99.90
22418;DHT22;11376;50.932;4.442;2022-08-25T19:24:05;25.30;99.90
